Terminal Aerodrome Forecast
Issued by NWS Lake Charles, LA

Home | Current Version | Previous Version | Text Only | Print | Product List | Glossary On
Versions: 1 2 3 4 5 6 7 8 9 10 11 12 13 14 15 16
000
FTUS44 KLCH 041535 AAB
TAFARA
TAF AMD
KARA 041535Z 0416/0512 16005KT P6SM VCSH SCT020 SCT035
      TEMPO 0416/0418 4SM SHRA BKN020 OVC035
     FM041800 20005KT P6SM VCTS SCT040CB
     FM050000 VRB03KT P6SM SKC=

USA.gov is the U.S. government's official web portal to all federal, state and local government web resources and services.